Time;durP1;ratioP1;P1;durP2;ratioP2;P2;SDS_P1;SDS_P2;PMS_P1;PMS_P2;Temp;Humidity;BMP_temperature;BMP_pressure;BME280_temperature;BME280_humidity;BME280_pressure;Samples;Min_cycle;Max_cycle;Signal;HPM_P1;HPM_P2
2021/06/24 02:47:10;;;;;;;66.55;40.92;;;23.30;94.90;;;;;;4880025;24;19967;-77
2021/06/24 02:49:37;;;;;;;82.18;47.55;;;23.20;94.80;;;;;;4708209;30;20394;-76
2021/06/24 02:52:06;;;;;;;75.35;47.15;;;23.20;95.10;;;;;;4699437;30;20051;-77
2021/06/24 02:54:33;;;;;;;82.07;47.45;;;23.10;95.20;;;;;;4708924;30;20045;-76
2021/06/24 02:57:00;;;;;;;68.78;44.25;;;23.10;95.30;;;;;;4709707;30;20257;-76
2021/06/24 02:59:45;;;;;;;70.28;45.83;;;23.10;95.20;;;;;;4709880;30;20045;-76
2021/06/24 03:02:13;;;;;;;68.53;43.60;;;23.10;95.30;;;;;;4708584;30;20041;-77
2021/06/24 03:04:42;;;;;;;71.00;45.40;;;23.20;95.30;;;;;;4708645;30;20030;-77
2021/06/24 03:07:08;;;;;;;65.15;44.30;;;23.20;95.30;;;;;;4708650;30;20245;-76
2021/06/24 03:09:43;;;;;;;75.82;48.53;;;23.20;95.20;;;;;;4709554;30;20404;-77
2021/06/24 03:12:09;;;;;;;70.30;42.60;;;23.20;95.20;;;;;;4708609;30;20037;-77
2021/06/24 03:14:37;;;;;;;71.63;42.25;;;23.20;95.00;;;;;;4708372;30;20033;-77
2021/06/24 03:17:05;;;;;;;71.97;45.80;;;23.30;94.90;;;;;;4696958;30;20093;-76
2021/06/24 03:19:32;;;;;;;;;;;23.40;94.90;;;;;;4709885;30;20339;-77
2021/06/24 03:22:08;;;;;;;60.53;43.22;;;23.40;94.70;;;;;;4708664;30;19911;-75
2021/06/24 03:24:47;;;;;;;64.22;42.20;;;23.50;94.50;;;;;;4708630;30;20037;-77
2021/06/24 03:27:13;;;;;;;66.18;43.35;;;23.50;94.40;;;;;;4709417;30;20209;-76
2021/06/24 03:29:59;;;;;;;67.60;44.63;;;23.50;94.30;;;;;;4707491;30;20159;-76
2021/06/24 03:32:25;;;;;;;70.88;43.17;;;23.60;94.20;;;;;;4708232;30;20045;-77
2021/06/24 03:34:51;;;;;;;74.05;42.03;;;23.60;94.00;;;;;;4708241;30;20482;-76
2021/06/24 03:37:20;;;;;;;65.68;43.15;;;23.70;93.80;;;;;;4708251;30;20034;-76
2021/06/24 03:39:49;;;;;;;61.00;39.92;;;23.80;93.70;;;;;;4708375;30;20096;-77
2021/06/24 03:42:16;;;;;;;61.15;40.80;;;23.90;93.50;;;;;;4708174;30;20030;-76
2021/06/24 03:44:42;;;;;;;66.35;43.50;;;24.00;93.20;;;;;;4708087;30;20109;-77
2021/06/24 03:47:09;;;;;;;60.17;40.70;;;24.00;93.20;;;;;;4670202;30;1185388;-76
2021/06/24 03:49:35;;;;;;;65.63;43.50;;;24.00;93.40;;;;;;4688604;30;20629;-77
2021/06/24 03:52:02;;;;;;;60.97;41.10;;;24.00;93.30;;;;;;4709763;30;20025;-76
2021/06/24 03:54:28;;;;;;;;;;;24.10;93.20;;;;;;4719167;30;20041;-76
2021/06/24 03:56:55;;;;;;;62.30;39.58;;;24.10;93.10;;;;;;4694794;30;19919;-76
2021/06/24 03:59:21;;;;;;;65.80;40.77;;;24.20;92.90;;;;;;4708795;30;20298;-76
2021/06/24 04:01:53;;;;;;;66.75;41.78;;;24.30;92.80;;;;;;4709841;30;20045;-76
2021/06/24 04:04:19;;;;;;;57.83;38.60;;;24.30;92.80;;;;;;4708652;30;20142;-76
2021/06/24 04:07:04;;;;;;;59.97;39.65;;;24.40;92.70;;;;;;4708578;30;20049;-76
2021/06/24 04:09:29;;;;;;;57.92;40.30;;;24.40;92.80;;;;;;4708550;30;20041;-76
2021/06/24 04:11:56;;;;;;;58.80;38.95;;;24.40;92.90;;;;;;4708423;30;20034;-76
2021/06/24 04:14:46;;;;;;;62.55;41.65;;;24.40;92.80;;;;;;4708381;30;20052;-77
2021/06/24 04:17:22;;;;;;;65.85;41.75;;;24.50;92.60;;;;;;4708435;30;20213;-76
2021/06/24 04:19:51;;;;;;;66.95;43.25;;;24.50;92.40;;;;;;4709551;30;20034;-75
2021/06/24 04:22:17;;;;;;;61.80;42.23;;;24.50;92.30;;;;;;4708414;30;20309;-76
2021/06/24 04:25:19;;;;;;;67.45;44.50;;;24.60;92.10;;;;;;4690439;30;20042;-76
2021/06/24 04:27:46;;;;;;;74.47;45.35;;;24.60;92.10;;;;;;4690440;30;20045;-77
2021/06/24 04:30:15;;;;;;;70.15;44.30;;;24.60;92.10;;;;;;4690447;30;20097;-77
2021/06/24 04:32:44;;;;;;;68.03;44.17;;;24.80;92.00;;;;;;4676623;30;20372;-77
2021/06/24 04:35:12;;;;;;;70.95;45.90;;;24.80;91.70;;;;;;4690247;30;20034;-76
2021/06/24 04:37:40;;;;;;;67.53;44.92;;;24.90;91.50;;;;;;4676041;30;20038;-76
2021/06/24 04:40:09;;;;;;;81.15;46.30;;;25.00;91.30;;;;;;4662167;30;20046;-76
2021/06/24 04:42:45;;;;;;;70.85;45.47;;;25.10;91.10;;;;;;4666369;30;20046;-77
2021/06/24 04:45:14;;;;;;;69.18;45.35;;;25.10;90.90;;;;;;4679292;30;20045;-77
2021/06/24 04:47:53;;;;;;;76.38;48.78;;;25.30;90.70;;;;;;4680571;30;20057;-76
2021/06/24 04:50:20;;;;;;;75.13;45.53;;;25.30;90.40;;;;;;4679713;30;20070;-76
2021/06/24 04:52:50;;;;;;;65.22;42.75;;;25.50;90.40;;;;;;4679591;30;20338;-77
2021/06/24 04:55:25;;;;;;;75.90;44.60;;;25.50;90.30;;;;;;4678450;30;20315;-77
2021/06/24 04:57:53;;;;;;;74.03;44.92;;;25.60;90.00;;;;;;4701881;30;20061;-76
2021/06/24 05:00:47;;;;;;;78.15;43.58;;;25.70;89.30;;;;;;4694157;30;20030;-77
2021/06/24 05:03:13;;;;;;;68.88;41.72;;;25.80;89.00;;;;;;4703045;30;20049;-77
2021/06/24 05:05:44;;;;;;;67.03;43.33;;;25.90;88.50;;;;;;4712963;30;20026;-76
2021/06/24 05:08:21;;;;;;;75.40;44.95;;;25.90;88.40;;;;;;4711590;30;20044;-77
2021/06/24 05:10:46;;;;;;;;;;;25.90;88.60;;;;;;4711808;30;20107;-77
2021/06/24 05:13:13;;;;;;;69.17;41.43;;;25.90;88.10;;;;;;4711371;30;19915;-77
2021/06/24 05:15:43;;;;;;;61.15;41.15;;;26.00;88.10;;;;;;4712291;30;20092;-76
2021/06/24 05:18:11;;;;;;;76.22;42.22;;;26.40;87.30;;;;;;4710949;30;20037;-76
2021/06/24 05:20:39;;;;;;;58.33;40.42;;;26.80;84.30;;;;;;4708965;30;20025;-76
2021/06/24 05:23:07;;;;;;;65.03;40.35;;;27.20;82.80;;;;;;4711438;30;20040;-76
2021/06/24 05:25:33;;;;;;;55.28;38.22;;;27.60;80.90;;;;;;4711579;30;20311;-76
2021/06/24 05:27:58;;;;;;;57.53;37.57;;;27.90;79.10;;;;;;4712233;30;20030;-76
2021/06/24 05:30:24;;;;;;;56.88;39.13;;;28.20;78.40;;;;;;4711314;30;20038;-77
2021/06/24 05:32:50;;;;;;;65.05;40.13;;;28.50;76.20;;;;;;4694265;30;20341;-76
2021/06/24 05:35:16;;;;;;;67.63;40.03;;;28.50;75.50;;;;;;4712474;30;20279;-76
2021/06/24 05:37:42;;;;;;;59.60;39.72;;;28.50;75.30;;;;;;4699249;30;20029;-76
2021/06/24 05:40:08;;;;;;;58.40;38.60;;;28.60;74.60;;;;;;4693914;30;20038;-76
2021/06/24 05:42:34;;;;;;;58.78;36.33;;;28.60;74.50;;;;;;4696934;30;20034;-77
2021/06/24 05:45:00;;;;;;;65.57;38.07;;;28.70;74.30;;;;;;4693772;30;20048;-77
2021/06/24 05:47:26;;;;;;;57.10;38.43;;;29.00;73.30;;;;;;4706956;30;20088;-77
2021/06/24 05:49:52;;;;;;;54.07;37.77;;;29.00;72.70;;;;;;4711379;30;20069;-77
2021/06/24 05:52:17;;;;;;;54.93;37.40;;;29.00;72.40;;;;;;4711831;30;20388;-78
2021/06/24 05:54:43;;;;;;;50.33;36.13;;;29.10;72.70;;;;;;4712775;30;20033;-78
2021/06/24 05:57:09;;;;;;;58.47;38.60;;;29.20;72.10;;;;;;4711240;30;20041;-76
2021/06/24 05:59:35;;;;;;;51.33;35.80;;;29.10;72.40;;;;;;4710759;30;20308;-76
2021/06/24 06:02:00;;;;;;;62.77;39.30;;;29.00;72.60;;;;;;4702255;30;20085;-76
2021/06/24 06:04:26;;;;;;;54.30;35.27;;;28.90;72.70;;;;;;4709923;30;20063;-76
2021/06/24 06:06:52;;;;;;;54.47;37.90;;;28.60;74.00;;;;;;4694523;30;20137;-76
2021/06/24 06:09:18;;;;;;;57.47;36.97;;;28.40;74.80;;;;;;4710114;30;20101;-76
2021/06/24 06:11:44;;;;;;;57.50;35.90;;;28.10;75.30;;;;;;4710285;30;20071;-76
2021/06/24 06:14:11;;;;;;;52.55;35.67;;;28.10;76.60;;;;;;4708819;30;20069;-76
2021/06/24 06:16:37;;;;;;;53.15;34.75;;;28.20;75.60;;;;;;4711102;30;20033;-76
2021/06/24 06:19:04;;;;;;;51.38;33.72;;;28.50;75.60;;;;;;4709806;30;20305;-77
2021/06/24 06:21:31;;;;;;;66.55;37.35;;;28.70;74.80;;;;;;4695825;30;20080;-76
2021/06/24 06:23:58;;;;;;;58.15;36.17;;;28.50;74.40;;;;;;4706472;30;20032;-76
2021/06/24 06:26:24;;;;;;;57.88;35.47;;;28.10;75.40;;;;;;4694677;30;20239;-76
2021/06/24 06:28:52;;;;;;;49.67;34.17;;;28.10;76.90;;;;;;4705276;30;20037;-76
2021/06/24 06:31:19;;;;;;;66.90;37.70;;;27.90;76.80;;;;;;4698409;30;20081;-76
2021/06/24 06:33:45;;;;;;;62.90;36.58;;;27.80;77.10;;;;;;4727273;30;20033;-75
2021/06/24 06:36:11;;;;;;;61.77;39.37;;;27.60;78.00;;;;;;4706169;30;20030;-75
2021/06/24 06:38:37;;;;;;;49.47;34.83;;;27.70;78.20;;;;;;4703573;30;20208;-75
2021/06/24 06:41:03;;;;;;;53.80;35.05;;;27.80;77.70;;;;;;4708999;30;20057;-75
2021/06/24 06:43:28;;;;;;;51.20;35.50;;;27.80;77.50;;;;;;4705789;30;20022;-75
2021/06/24 06:45:54;;;;;;;57.03;36.70;;;27.90;77.60;;;;;;4709065;30;20068;-75
2021/06/24 06:48:20;;;;;;;57.40;36.53;;;27.80;77.00;;;;;;4710116;30;20329;-75
2021/06/24 06:50:47;;;;;;;67.87;38.83;;;27.80;78.00;;;;;;4709589;30;20202;-76
2021/06/24 06:53:13;;;;;;;61.10;36.95;;;28.00;77.00;;;;;;4711226;30;20298;-75
2021/06/24 06:55:39;;;;;;;51.93;36.37;;;28.30;76.80;;;;;;4711394;30;20097;-75
2021/06/24 06:58:05;;;;;;;73.17;32.57;;;28.60;75.70;;;;;;4709036;30;20042;-75
2021/06/24 07:00:33;;;;;;;53.53;33.58;;;28.70;75.30;;;;;;4710391;30;20032;-75
2021/06/24 07:03:00;;;;;;;56.63;35.08;;;29.10;74.30;;;;;;4709954;30;20105;-75
2021/06/24 07:05:26;;;;;;;52.40;34.05;;;29.10;73.00;;;;;;4709935;30;20044;-75
2021/06/24 07:07:52;;;;;;;51.60;32.65;;;29.20;72.50;;;;;;4708996;30;20038;-75
2021/06/24 07:10:18;;;;;;;45.40;31.37;;;29.00;73.10;;;;;;4694425;30;20029;-75
2021/06/24 07:12:44;;;;;;;52.35;30.92;;;29.00;73.30;;;;;;4708841;30;20034;-75
2021/06/24 07:15:10;;;;;;;39.73;28.90;;;29.00;74.00;;;;;;4708847;30;20093;-75
2021/06/24 07:17:36;;;;;;;47.63;30.92;;;29.00;73.60;;;;;;4712296;30;20036;-76
2021/06/24 07:20:04;;;;;;;41.90;29.87;;;29.00;73.40;;;;;;4709008;30;20132;-76
2021/06/24 07:22:30;;;;;;;46.53;30.83;;;29.00;73.20;;;;;;4709067;30;20033;-76
2021/06/24 07:24:56;;;;;;;46.60;28.33;;;28.80;72.80;;;;;;4708975;30;20025;-76
2021/06/24 07:27:22;;;;;;;49.17;29.63;;;28.70;74.00;;;;;;4708785;30;20041;-76
2021/06/24 07:29:48;;;;;;;41.33;27.43;;;28.80;73.40;;;;;;4708617;30;20033;-75
2021/06/24 07:32:13;;;;;;;44.83;30.00;;;28.70;73.60;;;;;;4704861;30;20205;-75
2021/06/24 07:34:39;;;;;;;49.00;29.73;;;28.60;73.10;;;;;;4708431;30;20254;-75
2021/06/24 07:37:05;;;;;;;38.80;26.40;;;28.70;74.00;;;;;;4703817;30;20275;-75
2021/06/24 07:39:31;;;;;;;45.72;27.98;;;28.60;73.80;;;;;;4709450;30;20347;-75
2021/06/24 07:41:57;;;;;;;43.60;29.30;;;28.50;73.80;;;;;;4708389;30;20305;-75
2021/06/24 07:44:23;;;;;;;49.70;28.27;;;28.50;74.20;;;;;;4693995;30;20066;-75
2021/06/24 07:46:49;;;;;;;42.58;26.65;;;28.60;74.40;;;;;;4708532;30;20057;-77
2021/06/24 07:49:15;;;;;;;46.60;26.90;;;28.80;74.60;;;;;;4715848;30;20144;-78
2021/06/24 07:51:40;;;;;;;41.77;27.57;;;29.00;73.90;;;;;;4708957;30;20034;-77
2021/06/24 07:54:06;;;;;;;42.27;27.60;;;29.10;73.40;;;;;;4716422;30;20096;-77
2021/06/24 07:56:32;;;;;;;42.37;26.10;;;29.00;72.30;;;;;;4717309;30;20033;-77
2021/06/24 07:58:58;;;;;;;44.17;26.43;;;29.10;73.50;;;;;;4688733;30;20029;-76
2021/06/24 08:01:23;;;;;;;38.47;26.47;;;29.30;71.50;;;;;;4694729;30;20036;-78
2021/06/24 08:03:51;;;;;;;44.33;27.63;;;29.30;72.30;;;;;;4694299;30;20127;-77
2021/06/24 08:06:17;;;;;;;41.33;24.23;;;29.50;70.00;;;;;;4708883;30;20021;-77
2021/06/24 08:08:43;;;;;;;39.90;24.63;;;29.70;71.30;;;;;;4709231;30;20041;-77
2021/06/24 08:11:09;;;;;;;39.13;24.73;;;30.00;71.50;;;;;;4710391;30;20029;-77
2021/06/24 08:13:35;;;;;;;37.67;24.03;;;30.10;70.80;;;;;;4709959;30;20029;-77
2021/06/24 08:16:01;;;;;;;41.07;26.90;;;30.40;69.10;;;;;;4708604;30;20033;-77
2021/06/24 08:18:26;;;;;;;40.03;25.03;;;30.60;67.40;;;;;;4709752;30;20044;-77
2021/06/24 08:20:53;;;;;;;43.10;26.93;;;30.30;67.30;;;;;;4709350;30;20033;-78
2021/06/24 08:23:19;;;;;;;44.55;25.13;;;30.20;68.60;;;;;;4708642;30;20038;-77
2021/06/24 08:25:46;;;;;;;;;;;30.40;68.30;;;;;;4697191;30;20037;-76
2021/06/24 08:28:11;;;;;;;48.03;25.58;;;30.70;69.90;;;;;;4703970;30;19918;-77
2021/06/24 08:30:43;;;;;;;41.88;26.98;;;31.10;67.70;;;;;;4693565;30;20041;-77
2021/06/24 08:33:09;;;;;;;35.63;25.00;;;31.20;66.40;;;;;;4725308;30;20043;-76
2021/06/24 08:35:35;;;;;;;46.03;25.50;;;31.40;66.20;;;;;;4708059;30;20034;-77
2021/06/24 08:38:01;;;;;;;38.90;26.00;;;31.40;64.70;;;;;;4709246;30;20033;-77
2021/06/24 08:40:27;;;;;;;30.53;21.97;;;31.50;64.70;;;;;;4707491;30;20041;-76
2021/06/24 08:42:53;;;;;;;37.08;23.05;;;31.50;65.50;;;;;;4709392;30;20030;-76
2021/06/24 08:45:19;;;;;;;33.55;22.02;;;31.60;64.50;;;;;;4708630;30;20021;-77
2021/06/24 08:47:48;;;;;;;42.57;23.90;;;31.50;64.90;;;;;;4707269;30;20045;-77
2021/06/24 08:50:14;;;;;;;36.80;22.48;;;31.40;63.90;;;;;;4709601;30;20343;-77
2021/06/24 08:52:45;;;;;;;38.05;24.10;;;31.40;66.00;;;;;;4708443;30;20038;-78
2021/06/24 08:55:11;;;;;;;39.22;23.73;;;31.30;64.40;;;;;;4720454;30;20041;-77
2021/06/24 08:57:37;;;;;;;34.92;22.08;;;31.20;65.60;;;;;;4693747;30;20097;-76
2021/06/24 09:00:05;;;;;;;34.57;23.47;;;31.20;65.40;;;;;;4704928;30;20210;-76
2021/06/24 09:02:42;;;;;;;37.72;22.92;;;31.30;65.40;;;;;;4708144;30;20034;-77
2021/06/24 09:05:10;;;;;;;35.55;22.80;;;31.50;65.20;;;;;;4693933;30;20034;-77
2021/06/24 09:07:58;;;;;;;39.58;25.30;;;31.20;65.80;;;;;;4703347;30;20022;-76
2021/06/24 09:10:24;;;;;;;39.95;22.15;;;31.10;65.40;;;;;;4701690;30;20093;-77
2021/06/24 09:13:02;;;;;;;31.83;23.52;;;30.90;65.70;;;;;;4704082;30;20038;-76
2021/06/24 09:15:38;;;;;;;38.30;22.45;;;31.10;67.40;;;;;;4684742;30;20025;-76
2021/06/24 09:18:20;;;;;;;34.90;22.98;;;31.30;65.60;;;;;;4685137;30;20034;-77
2021/06/24 09:20:47;;;;;;;36.60;24.35;;;31.20;65.30;;;;;;4708379;30;20110;-77
2021/06/24 09:23:23;;;;;;;32.38;20.85;;;31.10;65.60;;;;;;4693463;30;20081;-76
2021/06/24 09:26:07;;;;;;;32.72;22.15;;;31.10;67.40;;;;;;4691911;30;20034;-77
2021/06/24 09:28:41;;;;;;;33.60;22.08;;;31.40;67.10;;;;;;4701951;30;20056;-77
2021/06/24 09:31:28;;;;;;;35.25;19.35;;;31.50;64.30;;;;;;4701459;30;20038;-76
2021/06/24 09:34:04;;;;;;;27.23;19.15;;;31.70;63.80;;;;;;4709915;30;20045;-77
2021/06/24 09:36:34;;;;;;;;;;;31.90;63.90;;;;;;4712327;30;20037;-76
2021/06/24 09:39:03;;;;;;;37.97;22.83;;;31.90;64.50;;;;;;4710229;30;19953;-75
2021/06/24 09:41:29;;;;;;;36.42;21.88;;;31.70;63.10;;;;;;4710135;30;20025;-76
2021/06/24 09:43:55;;;;;;;34.77;19.73;;;31.70;63.50;;;;;;4710090;30;20026;-77
2021/06/24 09:46:23;;;;;;;31.47;19.83;;;31.60;64.60;;;;;;4708074;30;20044;-77
2021/06/24 09:49:00;;;;;;;35.50;21.27;;;31.80;64.30;;;;;;4708588;30;20038;-77
2021/06/24 09:51:32;;;;;;;29.83;19.58;;;32.10;63.40;;;;;;4705551;30;20056;-77
2021/06/24 09:54:06;;;;;;;32.55;19.38;;;32.10;62.80;;;;;;4686677;30;20045;-77
2021/06/24 09:56:35;;;;;;;32.50;19.10;;;32.10;62.00;;;;;;4706537;30;20033;-77
2021/06/24 09:59:04;;;;;;;41.15;20.48;;;32.10;62.40;;;;;;4711057;30;20041;-77
2021/06/24 10:01:33;;;;;;;48.85;19.85;;;32.10;61.70;;;;;;4701640;30;20048;-77
2021/06/24 10:04:00;;;;;;;29.90;18.30;;;32.20;61.60;;;;;;4709986;30;20355;-76
2021/06/24 10:06:27;;;;;;;41.20;18.20;;;32.30;62.40;;;;;;4693717;30;20229;-77
2021/06/24 10:08:54;;;;;;;32.50;18.88;;;32.50;62.80;;;;;;4710467;30;20034;-78
2021/06/24 10:11:22;;;;;;;35.22;18.13;;;32.70;61.80;;;;;;4711224;30;20029;-78
2021/06/24 10:13:48;;;;;;;35.70;18.50;;;32.90;62.10;;;;;;4711038;30;20100;-78
2021/06/24 10:16:15;;;;;;;33.42;18.00;;;33.10;61.30;;;;;;4696708;30;20087;-78
2021/06/24 10:18:46;;;;;;;33.90;18.27;;;33.40;61.60;;;;;;4710967;30;20045;-78
2021/06/24 10:21:14;;;;;;;26.40;16.70;;;33.40;60.00;;;;;;4696764;30;20080;-78
2021/06/24 10:23:53;;;;;;;33.97;17.80;;;33.40;58.60;;;;;;4705877;30;20041;-78
2021/06/24 10:26:21;;;;;;;36.05;18.10;;;33.20;59.60;;;;;;4696881;30;20170;-78
2021/06/24 10:28:47;;;;;;;37.97;16.45;;;33.20;58.30;;;;;;4711393;30;20029;-78
2021/06/24 10:31:40;;;;;;;24.40;16.23;;;33.20;59.10;;;;;;4697015;30;20040;-78
2021/06/24 10:34:06;;;;;;;25.40;16.70;;;33.30;58.60;;;;;;4709924;30;20325;-78
2021/06/24 10:36:33;;;;;;;33.63;17.05;;;33.60;59.00;;;;;;4696780;30;20050;-78
2021/06/24 10:39:01;;;;;;;28.08;17.08;;;33.80;58.50;;;;;;4720069;30;20037;-78
2021/06/24 10:41:27;;;;;;;30.55;15.57;;;33.80;55.30;;;;;;4717188;30;20038;-77
2021/06/24 10:43:54;;;;;;;29.43;15.20;;;33.70;59.90;;;;;;4713591;30;20052;-77
2021/06/24 10:46:24;;;;;;;29.73;16.65;;;33.90;58.10;;;;;;4709801;30;20230;-77
2021/06/24 10:48:50;;;;;;;26.15;15.52;;;34.00;55.40;;;;;;4714929;30;20032;-77
2021/06/24 10:51:17;;;;;;;22.95;13.80;;;34.00;55.90;;;;;;4712320;30;20037;-77
2021/06/24 10:53:47;;;;;;;28.33;14.32;;;33.90;56.40;;;;;;4723323;30;20055;-77
2021/06/24 10:56:28;;;;;;;28.17;13.98;;;33.80;58.50;;;;;;4717438;30;20033;-77
2021/06/24 10:58:55;;;;;;;24.90;12.70;;;33.90;56.00;;;;;;4703893;30;20229;-77
2021/06/24 11:01:42;;;;;;;32.58;13.95;;;33.90;55.70;;;;;;4716794;30;20036;-77
2021/06/24 11:04:09;;;;;;;34.03;14.02;;;33.80;56.70;;;;;;4714098;30;20030;-77
2021/06/24 11:06:50;;;;;;;32.72;13.70;;;33.80;55.80;;;;;;4714476;30;20092;-77
2021/06/24 11:09:17;;;;;;;26.55;12.82;;;33.80;55.00;;;;;;4709766;30;20069;-77
2021/06/24 11:11:44;;;;;;;23.58;12.40;;;33.70;54.80;;;;;;4709318;30;20037;-77
2021/06/24 11:14:14;;;;;;;29.20;13.82;;;33.80;53.60;;;;;;4709603;30;20029;-77
2021/06/24 11:16:41;;;;;;;35.85;13.95;;;33.90;54.00;;;;;;4710602;30;20218;-77
2021/06/24 11:19:14;;;;;;;24.33;12.00;;;34.10;54.70;;;;;;4709442;30;20021;-77
2021/06/24 11:21:39;;;;;;;31.27;13.07;;;34.40;53.70;;;;;;4716598;30;20039;-77
2021/06/24 11:24:05;;;;;;;34.63;14.57;;;34.60;54.50;;;;;;4710519;30;20057;-77
2021/06/24 11:26:39;;;;;;;28.40;14.30;;;34.70;54.80;;;;;;4711346;30;20212;-78
2021/06/24 11:29:11;;;;;;;33.42;12.82;;;34.60;54.20;;;;;;4705816;30;20100;-78
2021/06/24 11:37:04;;;;;;;32.35;13.13;;;34.90;52.80;;;;;;4710696;30;20260;-78
2021/06/24 11:39:35;;;;;;;39.22;14.43;;;35.10;57.00;;;;;;4713316;30;20063;-78
2021/06/24 11:42:06;;;;;;;30.92;13.57;;;35.50;52.20;;;;;;4707020;30;20035;-78
2021/06/24 11:44:45;;;;;;;30.23;13.48;;;35.50;53.70;;;;;;4702191;30;20033;-78
2021/06/24 11:47:14;;;;;;;30.02;14.05;;;35.50;52.30;;;;;;4713887;30;20049;-78
2021/06/24 12:03:49;;;;;;;41.15;12.50;;;35.20;51.20;;;;;;4699319;30;20097;-78
2021/06/24 12:06:15;;;;;;;28.27;12.15;;;35.30;52.50;;;;;;4703376;30;20045;-79
2021/06/24 12:08:41;;;;;;;28.27;11.95;;;35.40;52.50;;;;;;4710641;30;20034;-78
2021/06/24 12:11:12;;;;;;;22.65;11.68;;;35.30;51.80;;;;;;4710940;30;20069;-78
2021/06/24 12:13:41;;;;;;;29.13;11.23;;;35.30;51.70;;;;;;4709486;30;20233;-77
2021/06/24 12:16:11;;;;;;;31.95;13.27;;;35.50;50.70;;;;;;4695108;30;20146;-78
2021/06/24 12:18:42;;;;;;;23.25;10.85;;;35.60;51.30;;;;;;4695148;30;20277;-78
2021/06/24 12:21:08;;;;;;;24.23;10.50;;;35.80;53.10;;;;;;4709626;30;20060;-78
2021/06/24 12:23:48;;;;;;;27.37;11.23;;;35.80;49.40;;;;;;4709649;30;20064;-78
2021/06/24 12:26:17;;;;;;;24.58;11.00;;;35.70;48.80;;;;;;4710681;30;20037;-78
2021/06/24 12:28:43;;;;;;;22.15;10.32;;;35.70;51.70;;;;;;4710502;30;20034;-78
2021/06/24 12:31:24;;;;;;;24.60;11.07;;;35.90;50.40;;;;;;4709423;30;20065;-78
2021/06/24 12:34:01;;;;;;;43.30;11.23;;;36.00;48.90;;;;;;4705315;30;20265;-79
2021/06/24 12:36:35;;;;;;;23.02;11.27;;;36.00;47.50;;;;;;4709561;30;20272;-79
2021/06/24 12:39:02;;;;;;;25.25;11.52;;;35.80;47.70;;;;;;4707305;30;20042;-78
2021/06/24 12:41:29;;;;;;;28.30;11.48;;;35.70;48.30;;;;;;4695001;30;20221;-78
2021/06/24 12:44:02;;;;;;;26.67;11.32;;;35.70;48.60;;;;;;4711241;30;20034;-77
2021/06/24 12:46:32;;;;;;;33.13;11.68;;;35.80;49.80;;;;;;4693722;30;20129;-78
2021/06/24 12:49:13;;;;;;;35.78;13.50;;;36.00;48.90;;;;;;4688661;30;20266;-77
2021/06/24 12:51:39;;;;;;;25.40;12.68;;;36.10;49.60;;;;;;4710095;30;20325;-78
2021/06/24 12:54:18;;;;;;;22.87;12.20;;;36.00;48.50;;;;;;4694858;30;20084;-78
2021/06/24 12:56:49;;;;;;;33.08;12.98;;;35.90;51.10;;;;;;4712426;30;20268;-78
2021/06/24 12:59:18;;;;;;;30.58;12.13;;;36.00;50.00;;;;;;4710059;30;20057;-78
2021/06/24 13:01:45;;;;;;;31.63;11.75;;;36.20;51.10;;;;;;4710065;30;20083;-78
2021/06/24 13:04:28;;;;;;;22.70;11.73;;;36.30;49.00;;;;;;4698794;30;20051;-78
2021/06/24 13:06:56;;;;;;;35.17;13.20;;;36.50;50.80;;;;;;4722405;30;20072;-78
2021/06/24 13:09:41;;;;;;;26.13;13.65;;;36.40;48.30;;;;;;4708784;30;20056;-78
2021/06/24 13:12:08;;;;;;;35.80;12.68;;;36.00;49.50;;;;;;4698626;30;20065;-78
2021/06/24 13:14:40;;;;;;;32.47;12.57;;;35.90;50.20;;;;;;4681879;30;20040;-78
2021/06/24 13:17:12;;;;;;;33.28;12.73;;;35.90;49.60;;;;;;4709679;30;20394;-77
2021/06/24 13:19:41;;;;;;;32.17;13.82;;;35.80;49.70;;;;;;4712318;30;20029;-77
2021/06/24 13:22:10;;;;;;;30.92;13.73;;;35.50;50.40;;;;;;4709579;30;20022;-77
2021/06/24 13:24:40;;;;;;;31.80;14.30;;;35.10;51.30;;;;;;4711493;30;20030;-78
2021/06/24 13:27:21;;;;;;;29.38;13.73;;;34.80;52.30;;;;;;4697573;30;20060;-78
2021/06/24 13:29:55;;;;;;;27.52;13.43;;;34.70;52.90;;;;;;4712694;30;20040;-77
2021/06/24 13:32:32;;;;;;;34.13;12.70;;;34.50;52.00;;;;;;4713035;30;20109;-77
2021/06/24 13:35:23;;;;;;;32.67;13.18;;;34.40;52.80;;;;;;4711444;30;20036;-77
2021/06/24 13:37:51;;;;;;;35.38;12.63;;;34.30;52.30;;;;;;4712194;30;20068;-77
2021/06/24 13:40:19;;;;;;;29.05;12.35;;;34.20;53.00;;;;;;4711026;30;20029;-77
2021/06/24 13:43:10;;;;;;;34.40;13.43;;;34.00;52.70;;;;;;4712538;30;20026;-77
2021/06/24 13:45:36;;;;;;;34.47;13.10;;;33.70;52.90;;;;;;4710940;30;20241;-77
2021/06/24 13:48:02;;;;;;;32.95;13.35;;;33.40;53.20;;;;;;4711258;30;20058;-77
2021/06/24 13:50:29;;;;;;;32.78;12.43;;;33.30;54.10;;;;;;4710817;30;20045;-77
2021/06/24 13:52:54;;;;;;;27.13;12.35;;;33.10;54.50;;;;;;4711208;30;20049;-77
2021/06/24 13:55:20;;;;;;;28.93;13.40;;;33.00;55.20;;;;;;4712105;30;20037;-77
2021/06/24 13:57:46;;;;;;;37.03;13.70;;;32.90;56.70;;;;;;4712046;30;20053;-77
2021/06/24 14:00:12;;;;;;;38.97;13.60;;;32.80;57.00;;;;;;4712167;30;20033;-77
2021/06/24 14:02:43;;;;;;;33.78;13.85;;;32.80;56.70;;;;;;4711270;30;20069;-77
2021/06/24 14:05:10;;;;;;;38.33;14.50;;;32.70;57.60;;;;;;4711112;30;20025;-77
2021/06/24 14:07:36;;;;;;;40.80;14.77;;;32.50;59.50;;;;;;4710661;30;20113;-77
2021/06/24 14:10:03;;;;;;;46.73;15.20;;;32.40;59.20;;;;;;4710168;30;20041;-78
2021/06/24 14:12:29;;;;;;;40.42;15.40;;;32.20;60.70;;;;;;4687740;30;20150;-77
2021/06/24 14:14:55;;;;;;;38.03;15.93;;;32.10;62.30;;;;;;4691519;30;20162;-77
2021/06/24 14:17:21;;;;;;;44.63;14.83;;;32.00;64.40;;;;;;4712187;30;20033;-78
2021/06/24 14:19:47;;;;;;;46.70;18.13;;;31.80;65.80;;;;;;4712649;30;20036;-77
2021/06/24 14:22:12;;;;;;;44.27;18.30;;;31.80;69.30;;;;;;4711540;30;20033;-78
2021/06/24 14:24:38;;;;;;;56.17;18.97;;;31.70;72.40;;;;;;4711297;30;20079;-79
2021/06/24 14:27:05;;;;;;;52.47;17.77;;;31.60;71.40;;;;;;4699824;30;20339;-79
2021/06/24 14:29:33;;;;;;;50.45;19.60;;;31.50;74.90;;;;;;4704035;30;20057;-79
2021/06/24 14:31:59;;;;;;;54.28;19.98;;;31.40;77.00;;;;;;4711858;30;20356;-79
2021/06/24 14:34:26;;;;;;;59.75;21.70;;;31.20;79.40;;;;;;4697685;30;20037;-81
2021/06/24 14:36:54;;;;;;;54.55;22.48;;;31.10;81.20;;;;;;4702736;30;20042;-83
2021/06/24 14:39:20;;;;;;;60.05;23.92;;;30.80;82.00;;;;;;4710885;30;20037;-83
2021/06/24 14:41:46;;;;;;;52.22;22.40;;;30.50;82.90;;;;;;4713238;30;20355;-83
2021/06/24 14:44:12;;;;;;;68.00;21.47;;;30.10;84.10;;;;;;4697991;30;20037;-83
2021/06/24 14:46:38;;;;;;;55.72;24.02;;;29.90;84.80;;;;;;4697336;30;20056;-82
2021/06/24 14:49:04;;;;;;;48.80;22.07;;;29.70;89.00;;;;;;4712995;30;20037;-81
2021/06/24 14:51:31;;;;;;;60.53;23.60;;;29.70;88.70;;;;;;4697822;30;20064;-81
2021/06/24 14:53:57;;;;;;;56.20;21.35;;;29.60;88.20;;;;;;4697353;30;20057;-80
2021/06/24 14:56:24;;;;;;;42.70;19.83;;;29.50;88.80;;;;;;4694444;30;20030;-80
2021/06/24 14:58:50;;;;;;;59.22;20.42;;;29.30;87.20;;;;;;4711522;30;20626;-80
2021/06/24 15:01:17;;;;;;;44.58;20.20;;;29.00;86.00;;;;;;4708533;30;20025;-80
2021/06/24 15:03:44;;;;;;;46.70;19.52;;;28.70;87.60;;;;;;4711560;30;20037;-80
2021/06/24 15:06:11;;;;;;;45.05;17.45;;;28.50;87.30;;;;;;4687940;30;20376;-80
2021/06/24 15:08:37;;;;;;;43.28;15.48;;;28.40;87.60;;;;;;4710947;30;20088;-79
2021/06/24 15:11:03;;;;;;;41.47;15.70;;;28.30;85.90;;;;;;4695883;30;20328;-80
2021/06/24 15:13:29;;;;;;;40.47;15.30;;;28.30;84.80;;;;;;4701689;30;20038;-79
2021/06/24 15:15:56;;;;;;;43.70;16.73;;;28.30;84.80;;;;;;4709216;30;20089;-79
2021/06/24 15:18:22;;;;;;;44.30;15.60;;;28.30;87.90;;;;;;4685217;30;20375;-80
2021/06/24 15:20:50;;;;;;;34.20;15.77;;;28.30;85.10;;;;;;4710484;30;20043;-79
2021/06/24 15:23:16;;;;;;;35.38;16.70;;;28.30;84.80;;;;;;4711555;30;20053;-79
2021/06/24 15:25:42;;;;;;;42.47;16.27;;;28.30;85.40;;;;;;4710043;30;20030;-79
2021/06/24 15:28:08;;;;;;;37.70;16.33;;;28.30;88.80;;;;;;4709758;30;20083;-80
2021/06/24 15:30:35;;;;;;;46.53;17.40;;;28.30;86.40;;;;;;4706550;30;20101;-79
2021/06/24 15:33:02;;;;;;;35.85;17.98;;;28.30;88.50;;;;;;4682911;30;20046;-79
2021/06/24 15:35:28;;;;;;;40.10;17.48;;;28.30;89.10;;;;;;4695385;30;20045;-79
2021/06/24 15:37:55;;;;;;;54.17;20.53;;;28.20;89.00;;;;;;4708236;30;20084;-79
2021/06/24 15:40:21;;;;;;;;;;;28.20;89.30;;;;;;4713782;30;20025;-79
2021/06/24 15:42:49;;;;;;;38.17;15.87;;;28.10;88.60;;;;;;4698510;30;19961;-79